Time;durP1;ratioP1;P1;durP2;ratioP2;P2;SDS_P1;SDS_P2;PMS_P1;PMS_P2;Temp;Humidity;BMP_temperature;BMP_pressure;BME280_temperature;BME280_humidity;BME280_pressure;Samples;Min_cycle;Max_cycle;Signal;HPM_P1;HPM_P2
2021/04/23 00:00:50;;;;;;;3.22;1.00;;;5.60;68.10;;;;;;2086485;28;20066;-84
2021/04/23 00:01:52;;;;;;;2.72;1.10;;;5.50;68.20;;;;;;2090086;28;20043;-84
2021/04/23 00:02:55;;;;;;;2.88;1.15;;;5.50;68.20;;;;;;2092152;28;20427;-84
2021/04/23 00:03:59;;;;;;;2.53;1.30;;;5.50;68.40;;;;;;2083812;28;20033;-84
2021/04/23 00:04:59;;;;;;;1.88;1.00;;;5.50;68.40;;;;;;2077607;28;20029;-85
2021/04/23 00:06:03;;;;;;;4.18;1.10;;;5.50;68.40;;;;;;2068415;28;20121;-84
2021/04/23 00:07:04;;;;;;;2.97;1.08;;;5.50;68.40;;;;;;2079703;28;20029;-84
2021/04/23 00:08:04;;;;;;;2.53;1.20;;;5.50;68.40;;;;;;2088651;28;20487;-85
2021/04/23 00:09:18;;;;;;;3.53;1.10;;;5.50;68.40;;;;;;2087006;28;20060;-84
2021/04/23 00:10:21;;;;;;;2.92;1.17;;;5.50;68.50;;;;;;2091825;28;20025;-83
2021/04/23 00:11:36;;;;;;;3.08;1.10;;;5.50;68.40;;;;;;2090866;28;20391;-84
2021/04/23 00:12:37;;;;;;;2.38;1.00;;;5.50;68.50;;;;;;2082692;28;20380;-84
2021/04/23 00:13:40;;;;;;;3.13;1.10;;;5.50;68.50;;;;;;2081264;28;20161;-83
2021/04/23 00:14:47;;;;;;;2.65;1.50;;;5.50;69.20;;;;;;2084477;28;20017;-84
2021/04/23 00:15:49;;;;;;;5.55;1.40;;;5.50;68.50;;;;;;2084657;28;20017;-84
2021/04/23 00:16:50;;;;;;;5.07;1.35;;;5.40;68.50;;;;;;2090158;28;20473;-84
2021/04/23 00:17:52;;;;;;;2.25;1.00;;;5.40;68.50;;;;;;2073352;28;20022;-84
2021/04/23 00:18:52;;;;;;;2.97;1.20;;;5.40;68.60;;;;;;2065241;28;20038;-84
2021/04/23 00:19:53;;;;;;;3.83;1.30;;;5.40;68.70;;;;;;2073171;28;20116;-84
2021/04/23 00:20:54;;;;;;;3.33;1.33;;;5.30;68.70;;;;;;2073113;28;20030;-84
2021/04/23 00:21:56;;;;;;;2.05;1.02;;;5.30;68.90;;;;;;2072996;28;20053;-84
2021/04/23 00:23:00;;;;;;;4.45;1.30;;;5.30;68.90;;;;;;2065823;28;20400;-84
2021/04/23 00:24:01;;;;;;;3.72;1.27;;;5.30;68.90;;;;;;2080393;28;20037;-84
2021/04/23 00:25:02;;;;;;;3.88;1.20;;;5.30;69.00;;;;;;2089546;28;20029;-84
2021/04/23 00:26:04;;;;;;;2.42;1.10;;;5.30;69.10;;;;;;2089795;28;20058;-83
2021/04/23 00:27:06;;;;;;;5.85;1.60;;;5.30;69.20;;;;;;2080910;28;20029;-84
2021/04/23 00:28:10;;;;;;;5.15;1.30;;;5.20;69.20;;;;;;2081449;28;20548;-85
2021/04/23 00:29:11;;;;;;;2.58;1.20;;;5.20;69.60;;;;;;2089866;28;20053;-85
2021/04/23 00:30:12;;;;;;;3.35;1.10;;;5.20;69.30;;;;;;2096054;28;20028;-85
2021/04/23 00:31:12;;;;;;;2.75;1.17;;;5.30;69.40;;;;;;2077449;28;20084;-85
2021/04/23 00:33:34;;;;;;;3.92;1.30;;;5.20;69.40;;;;;;2078620;28;20042;-85
2021/04/23 00:34:34;;;;;;;2.38;1.10;;;5.20;69.30;;;;;;2089701;28;20021;-85
2021/04/23 00:35:40;;;;;;;4.50;1.40;;;5.20;69.40;;;;;;2085779;28;20025;-85
2021/04/23 00:36:40;;;;;;;3.80;1.30;;;5.20;69.40;;;;;;2097389;28;20024;-84
2021/04/23 00:37:46;;;;;;;3.95;1.40;;;5.20;69.50;;;;;;2076489;28;20071;-84
2021/04/23 00:38:46;;;;;;;5.10;1.77;;;5.20;70.10;;;;;;2074328;28;20030;-85
2021/04/23 00:39:47;;;;;;;3.03;1.23;;;5.20;69.50;;;;;;2073744;28;20029;-84
2021/04/23 00:41:09;;;;;;;4.68;1.50;;;5.20;69.50;;;;;;2088506;28;20021;-84
2021/04/23 00:42:09;;;;;;;3.63;1.23;;;5.20;69.60;;;;;;2095058;28;20074;-84
2021/04/23 00:43:10;;;;;;;2.50;1.00;;;5.20;69.60;;;;;;2093019;28;20086;-84
2021/04/23 00:44:12;;;;;;;4.18;1.23;;;5.20;69.60;;;;;;2085936;28;20018;-84
2021/04/23 00:45:15;;;;;;;3.13;1.20;;;5.10;69.60;;;;;;2088639;28;20021;-84
2021/04/23 00:46:15;;;;;;;2.58;1.02;;;5.10;69.70;;;;;;2081501;28;20040;-84
2021/04/23 00:47:16;;;;;;;2.85;1.30;;;5.10;69.80;;;;;;2072623;28;20056;-84
2021/04/23 00:48:17;;;;;;;3.83;1.20;;;5.10;69.80;;;;;;2073217;28;20038;-84
2021/04/23 00:49:18;;;;;;;3.60;1.45;;;5.10;69.90;;;;;;2067054;28;20022;-85
2021/04/23 00:50:34;;;;;;;3.53;1.48;;;5.10;69.90;;;;;;2080404;28;20021;-85
2021/04/23 00:51:42;;;;;;;3.38;1.30;;;5.10;69.90;;;;;;2079334;28;20475;-85
2021/04/23 00:52:42;;;;;;;4.68;1.55;;;5.10;69.90;;;;;;2083048;28;20530;-84
2021/04/23 00:53:47;;;;;;;4.05;1.17;;;5.10;69.90;;;;;;2058690;28;20022;-84
2021/04/23 00:54:47;;;;;;;2.05;1.05;;;5.10;70.00;;;;;;2072140;28;20117;-85
2021/04/23 00:55:50;;;;;;;4.95;1.50;;;5.10;70.60;;;;;;2076104;28;20025;-84
2021/04/23 00:56:51;;;;;;;3.60;1.33;;;5.10;70.00;;;;;;2078969;28;20036;-84
2021/04/23 00:57:52;;;;;;;3.60;1.38;;;5.10;70.00;;;;;;2084171;28;20104;-84
2021/04/23 00:58:53;;;;;;;4.63;1.40;;;5.10;70.10;;;;;;2087259;28;20125;-84
2021/04/23 00:59:54;;;;;;;2.95;1.30;;;5.10;70.10;;;;;;2095037;28;20028;-84
2021/04/23 01:01:03;;;;;;;2.90;1.30;;;5.10;70.20;;;;;;2087584;28;20141;-84
2021/04/23 01:02:09;;;;;;;4.10;1.60;;;5.10;70.20;;;;;;2082205;28;20180;-84
2021/04/23 01:03:12;;;;;;;3.25;1.35;;;5.10;70.20;;;;;;2082389;28;20022;-85
2021/04/23 01:04:16;;;;;;;4.07;1.33;;;5.10;70.20;;;;;;2088583;28;20029;-85
2021/04/23 01:05:22;;;;;;;5.15;1.30;;;5.10;70.20;;;;;;2086639;28;20041;-84
2021/04/23 01:06:29;;;;;;;2.92;1.30;;;5.00;70.20;;;;;;2084659;28;20360;-84
2021/04/23 01:07:30;;;;;;;3.75;1.48;;;5.10;70.30;;;;;;2084928;28;20025;-84
2021/04/23 01:08:31;;;;;;;2.67;1.10;;;5.00;70.20;;;;;;2080544;28;20083;-84
2021/04/23 01:09:32;;;;;;;3.17;1.20;;;5.00;70.30;;;;;;2067870;28;20504;-84
2021/04/23 01:10:33;;;;;;;4.53;1.20;;;5.00;70.50;;;;;;2070899;28;20034;-84
2021/04/23 01:11:34;;;;;;;2.80;1.10;;;5.00;70.50;;;;;;2078939;28;20038;-85
2021/04/23 01:12:35;;;;;;;3.65;1.30;;;5.00;70.50;;;;;;2087095;28;20034;-84
2021/04/23 01:13:35;;;;;;;2.63;1.10;;;5.00;70.60;;;;;;2096987;28;20020;-85
2021/04/23 01:14:36;;;;;;;3.22;1.30;;;4.90;70.60;;;;;;2085572;28;20511;-84
2021/04/23 01:15:37;;;;;;;6.43;1.25;;;4.90;70.60;;;;;;2083545;28;20053;-84
2021/04/23 01:16:39;;;;;;;3.17;1.30;;;5.00;70.70;;;;;;2074139;28;20045;-85
2021/04/23 01:17:40;;;;;;;4.85;1.30;;;4.90;70.70;;;;;;2075369;28;20026;-85
2021/04/23 01:18:42;;;;;;;5.35;1.38;;;4.90;71.40;;;;;;2076093;28;20045;-84
2021/04/23 01:19:43;;;;;;;5.30;1.35;;;4.90;70.80;;;;;;2083276;28;20021;-84
2021/04/23 01:20:44;;;;;;;3.20;1.20;;;4.90;70.80;;;;;;2093673;28;20025;-84
2021/04/23 01:21:45;;;;;;;2.80;1.33;;;4.90;70.90;;;;;;2102952;28;20113;-84
2021/04/23 01:22:46;;;;;;;3.25;1.25;;;4.90;71.00;;;;;;2103621;28;20071;-84
2021/04/23 01:23:48;;;;;;;4.53;1.40;;;4.90;71.00;;;;;;2089505;28;20006;-84
2021/04/23 01:24:49;;;;;;;4.97;1.02;;;4.90;71.10;;;;;;2085453;28;20026;-85
2021/04/23 01:25:49;;;;;;;3.67;1.23;;;4.90;71.10;;;;;;2094990;28;20068;-85
2021/04/23 01:26:53;;;;;;;3.58;1.30;;;4.90;71.20;;;;;;2077542;28;20072;-85
2021/04/23 01:27:53;;;;;;;4.68;1.38;;;4.90;71.20;;;;;;2086111;28;20025;-84
2021/04/23 01:28:55;;;;;;;3.55;1.40;;;4.80;71.20;;;;;;2089047;28;20071;-84
2021/04/23 01:29:56;;;;;;;3.97;1.25;;;4.80;71.20;;;;;;2088748;28;20537;-84
2021/04/23 01:30:58;;;;;;;4.00;1.50;;;4.80;71.20;;;;;;2099791;28;20029;-85
2021/04/23 01:31:59;;;;;;;4.20;1.35;;;4.80;71.30;;;;;;2086680;28;20104;-85
2021/04/23 01:32:59;;;;;;;4.00;1.55;;;4.80;71.30;;;;;;2084790;28;20029;-85
2021/04/23 01:34:13;;;;;;;3.28;1.45;;;4.80;71.40;;;;;;2089649;28;20103;-83
2021/04/23 01:35:21;;;;;;;3.65;1.17;;;4.80;72.10;;;;;;2079592;28;20034;-85
2021/04/23 01:36:22;;;;;;;3.88;1.52;;;4.80;71.40;;;;;;2097469;28;20028;-85
2021/04/23 01:37:23;;;;;;;3.97;1.55;;;4.70;71.40;;;;;;2096216;28;20020;-84
2021/04/23 01:38:24;;;;;;;3.20;1.30;;;4.70;71.50;;;;;;2089623;28;20418;-85
2021/04/23 01:39:29;;;;;;;3.47;1.45;;;4.70;71.60;;;;;;2081023;28;20412;-85
2021/04/23 01:40:29;;;;;;;2.85;1.40;;;4.70;71.70;;;;;;2082258;28;20116;-85
2021/04/23 01:41:30;;;;;;;4.65;1.50;;;4.60;71.70;;;;;;2076318;28;20045;-85
2021/04/23 01:42:31;;;;;;;4.70;1.40;;;4.60;71.80;;;;;;2070217;28;20033;-84
2021/04/23 01:43:33;;;;;;;5.22;1.63;;;4.60;72.50;;;;;;2054738;28;20113;-84
2021/04/23 01:44:34;;;;;;;4.50;1.38;;;4.60;71.90;;;;;;2066518;28;20026;-85
2021/04/23 01:45:35;;;;;;;3.17;1.25;;;4.60;72.50;;;;;;2072082;28;20113;-84
2021/04/23 01:46:36;;;;;;;4.18;1.33;;;4.60;72.00;;;;;;2072393;28;20424;-84
2021/04/23 01:47:38;;;;;;;4.97;1.30;;;4.60;72.00;;;;;;2072990;28;20033;-84
2021/04/23 01:48:39;;;;;;;3.75;1.50;;;4.50;72.10;;;;;;2074849;28;20022;-84
2021/04/23 01:49:40;;;;;;;3.88;1.42;;;4.60;72.10;;;;;;2087115;28;20075;-84
2021/04/23 01:50:41;;;;;;;3.75;1.40;;;4.50;72.00;;;;;;2087506;28;20053;-85
2021/04/23 01:51:46;;;;;;;3.53;1.33;;;4.50;72.70;;;;;;2090672;28;20029;-84
2021/04/23 01:52:48;;;;;;;2.75;1.30;;;4.50;72.10;;;;;;2093936;28;20055;-84
2021/04/23 01:53:49;;;;;;;3.58;1.55;;;4.60;72.10;;;;;;2086746;28;20021;-85
2021/04/23 01:54:51;;;;;;;3.30;1.58;;;4.50;72.10;;;;;;2076192;28;20176;-85
2021/04/23 01:55:51;;;;;;;4.32;1.48;;;4.50;72.10;;;;;;2089319;28;20060;-84
2021/04/23 01:56:53;;;;;;;3.72;1.40;;;4.50;72.10;;;;;;2072833;28;20029;-84
2021/04/23 01:57:54;;;;;;;4.63;1.50;;;4.50;72.10;;;;;;2072841;28;20014;-84
2021/04/23 01:58:55;;;;;;;5.35;1.65;;;4.50;72.20;;;;;;2081188;28;20115;-84
2021/04/23 01:59:56;;;;;;;4.00;1.35;;;4.50;72.30;;;;;;2056668;28;20569;-84
2021/04/23 02:00:57;;;;;;;3.60;1.30;;;4.50;72.30;;;;;;2064075;28;20042;-84
2021/04/23 02:01:59;;;;;;;5.05;1.52;;;4.50;72.40;;;;;;2067646;28;20037;-85
2021/04/23 02:03:03;;;;;;;4.60;1.58;;;4.50;72.40;;;;;;2064245;28;20109;-84
2021/04/23 02:04:06;;;;;;;3.67;1.55;;;4.40;72.30;;;;;;2083705;28;20032;-85
2021/04/23 02:05:07;;;;;;;2.85;1.17;;;4.40;72.40;;;;;;2096225;28;20104;-85
2021/04/23 02:06:09;;;;;;;3.72;1.60;;;4.40;72.40;;;;;;2078581;28;20124;-85
2021/04/23 02:07:10;;;;;;;3.78;1.33;;;4.40;72.50;;;;;;2062223;28;20145;-84
2021/04/23 02:08:18;;;;;;;5.10;1.48;;;4.40;72.50;;;;;;2064211;28;20496;-84
2021/04/23 02:09:20;;;;;;;5.35;1.60;;;4.30;72.60;;;;;;2073392;28;20566;-84
2021/04/23 02:10:36;;;;;;;3.90;1.20;;;4.30;72.60;;;;;;2080176;28;20048;-85
2021/04/23 02:11:39;;;;;;;4.65;1.20;;;4.30;72.70;;;;;;2090751;28;20033;-84
2021/04/23 02:12:40;;;;;;;3.28;1.33;;;4.30;72.70;;;;;;2075373;28;20030;-85
2021/04/23 02:13:43;;;;;;;4.07;1.40;;;4.30;72.70;;;;;;2064837;28;20026;-84
2021/04/23 02:14:43;;;;;;;3.92;1.40;;;4.30;72.70;;;;;;2073190;28;20033;-84
2021/04/23 02:15:44;;;;;;;3.55;1.20;;;4.30;72.80;;;;;;2080812;28;20061;-85
2021/04/23 02:16:45;;;;;;;3.65;1.42;;;4.30;72.80;;;;;;2067521;28;20500;-85
2021/04/23 02:17:46;;;;;;;4.15;1.20;;;4.30;72.90;;;;;;2069735;28;20393;-85
2021/04/23 02:18:47;;;;;;;4.18;1.60;;;4.20;72.90;;;;;;2091762;28;20588;-85
2021/04/23 02:19:48;;;;;;;3.78;1.30;;;4.20;72.90;;;;;;2088872;28;20021;-85
2021/04/23 02:20:49;;;;;;;4.68;1.35;;;4.20;73.00;;;;;;2073466;28;20023;-84
2021/04/23 02:21:51;;;;;;;2.65;1.40;;;4.20;73.00;;;;;;2070211;28;20049;-85
2021/04/23 02:22:52;;;;;;;2.97;1.23;;;4.20;73.00;;;;;;2071659;28;20118;-85
2021/04/23 02:23:53;;;;;;;3.67;1.13;;;4.30;73.10;;;;;;2084764;28;20040;-85
2021/04/23 02:24:54;;;;;;;3.33;1.25;;;4.20;73.10;;;;;;2084915;28;20029;-85
2021/04/23 02:25:55;;;;;;;2.97;1.20;;;4.20;73.10;;;;;;2090765;28;20032;-85
2021/04/23 02:26:55;;;;;;;3.92;1.40;;;4.20;73.10;;;;;;2096793;28;20025;-85
2021/04/23 02:27:57;;;;;;;3.53;1.27;;;4.20;73.10;;;;;;2088184;28;20039;-85
2021/04/23 02:28:58;;;;;;;3.25;1.20;;;4.20;73.20;;;;;;2072410;28;20026;-84
2021/04/23 02:29:58;;;;;;;2.25;1.02;;;4.20;73.30;;;;;;2061723;28;20404;-85
2021/04/23 02:31:04;;;;;;;4.22;1.27;;;4.20;73.30;;;;;;2063387;28;20026;-85
2021/04/23 02:32:05;;;;;;;2.35;1.23;;;4.10;73.40;;;;;;2071629;28;20033;-85
2021/04/23 02:33:11;;;;;;;2.00;1.00;;;4.10;73.40;;;;;;2067897;28;20037;-84
2021/04/23 02:34:14;;;;;;;5.53;1.42;;;4.10;73.50;;;;;;2074096;28;20121;-84
2021/04/23 02:35:16;;;;;;;4.03;1.30;;;4.10;73.60;;;;;;2084851;28;20121;-84
2021/04/23 02:36:17;;;;;;;2.50;1.15;;;4.10;73.60;;;;;;2093125;28;20070;-84
2021/04/23 02:37:18;;;;;;;3.63;1.30;;;4.10;73.60;;;;;;2085109;28;20095;-84
2021/04/23 02:38:19;;;;;;;2.65;1.08;;;4.10;73.60;;;;;;2065836;28;20441;-84
2021/04/23 02:39:20;;;;;;;4.32;1.23;;;4.10;73.70;;;;;;2072160;28;20053;-85
2021/04/23 02:40:24;;;;;;;3.30;1.20;;;4.10;73.70;;;;;;2084380;28;20025;-84
2021/04/23 02:41:25;;;;;;;4.15;1.20;;;4.10;73.70;;;;;;2088232;28;20033;-84
2021/04/23 02:42:26;;;;;;;3.10;1.17;;;4.10;73.70;;;;;;2088214;28;20112;-85
2021/04/23 02:43:36;;;;;;;3.67;1.35;;;4.10;73.70;;;;;;2088678;28;20559;-84
2021/04/23 02:44:37;;;;;;;3.15;1.20;;;4.10;73.80;;;;;;2074825;28;20418;-84
2021/04/23 02:45:40;;;;;;;3.95;1.08;;;4.10;74.50;;;;;;2072203;28;20026;-84
2021/04/23 02:46:42;;;;;;;3.22;1.20;;;4.10;73.90;;;;;;2078598;28;20032;-84
2021/04/23 02:47:45;;;;;;;4.40;1.25;;;4.10;73.90;;;;;;2083576;28;20026;-84
2021/04/23 02:48:46;;;;;;;4.72;1.40;;;4.10;73.90;;;;;;2075791;28;20025;-84
2021/04/23 02:49:47;;;;;;;3.72;1.33;;;4.10;73.90;;;;;;2072476;28;20030;-84
2021/04/23 02:50:53;;;;;;;2.65;1.27;;;4.00;73.90;;;;;;2072056;28;20415;-84
2021/04/23 02:51:54;;;;;;;3.83;1.08;;;4.00;73.90;;;;;;2086495;28;20031;-84
2021/04/23 02:52:57;;;;;;;4.28;1.35;;;4.00;73.90;;;;;;2083143;28;20123;-84
2021/04/23 02:53:58;;;;;;;2.40;1.02;;;4.00;74.00;;;;;;2069140;28;20040;-84
2021/04/23 02:54:59;;;;;;;4.15;1.10;;;4.00;74.00;;;;;;2078019;28;20027;-84
2021/04/23 02:56:00;;;;;;;2.63;1.17;;;4.00;74.10;;;;;;2082897;28;20069;-84
2021/04/23 02:57:01;;;;;;;2.03;1.15;;;4.00;74.10;;;;;;2053509;28;20082;-83
2021/04/23 02:58:07;;;;;;;3.35;1.10;;;4.00;74.20;;;;;;2063563;28;20574;-84
2021/04/23 02:59:08;;;;;;;3.47;1.13;;;4.00;74.20;;;;;;2072250;28;20014;-84
2021/04/23 03:00:15;;;;;;;3.88;1.20;;;4.00;74.20;;;;;;2068516;28;20037;-84
2021/04/23 03:01:19;;;;;;;3.90;1.13;;;4.00;74.20;;;;;;2068481;28;20026;-84
2021/04/23 03:02:19;;;;;;;4.85;1.02;;;4.00;74.80;;;;;;2072964;28;20165;-84
2021/04/23 03:03:22;;;;;;;2.60;1.10;;;4.00;74.10;;;;;;2071699;28;20096;-84
2021/04/23 03:04:23;;;;;;;2.25;1.00;;;4.00;74.10;;;;;;2080413;28;20035;-84
2021/04/23 03:05:24;;;;;;;3.42;1.30;;;4.00;74.10;;;;;;2076212;28;20396;-85
2021/04/23 03:06:25;;;;;;;3.28;1.25;;;4.00;74.10;;;;;;2077361;28;20144;-85
2021/04/23 03:07:25;;;;;;;2.80;1.20;;;4.00;74.10;;;;;;2076299;28;20025;-84
2021/04/23 03:08:27;;;;;;;2.92;1.08;;;4.00;74.00;;;;;;2080360;28;20033;-85
2021/04/23 03:09:27;;;;;;;3.75;1.13;;;4.00;74.00;;;;;;2088438;28;20525;-84
2021/04/23 03:10:31;;;;;;;3.83;1.30;;;4.00;73.90;;;;;;2077817;28;20033;-84
2021/04/23 03:11:33;;;;;;;3.80;1.30;;;4.00;73.90;;;;;;2080647;28;20561;-84
2021/04/23 03:12:34;;;;;;;2.38;1.08;;;4.00;74.00;;;;;;2080114;28;20056;-84
2021/04/23 03:13:35;;;;;;;2.50;1.20;;;3.90;73.90;;;;;;2080293;28;20033;-85
2021/04/23 03:14:36;;;;;;;3.63;1.60;;;3.90;74.00;;;;;;2083728;28;20022;-83
2021/04/23 03:15:36;;;;;;;2.58;1.35;;;3.80;74.10;;;;;;2067563;28;20033;-83
2021/04/23 03:16:40;;;;;;;4.82;1.58;;;3.80;74.30;;;;;;2079697;28;20029;-83
2021/04/23 03:17:41;;;;;;;2.80;1.20;;;3.70;74.40;;;;;;2086600;28;20059;-84
2021/04/23 03:18:42;;;;;;;3.15;1.25;;;3.70;74.50;;;;;;2072365;28;20081;-83
2021/04/23 03:19:43;;;;;;;4.60;1.30;;;3.70;74.50;;;;;;2077709;28;20030;-83
2021/04/23 03:20:44;;;;;;;3.30;1.25;;;3.70;74.60;;;;;;2085121;28;20140;-84
2021/04/23 03:21:46;;;;;;;3.63;1.30;;;3.60;74.60;;;;;;2079926;28;20381;-84
2021/04/23 03:22:47;;;;;;;3.35;1.30;;;3.60;74.80;;;;;;2085717;28;20040;-83
2021/04/23 03:23:48;;;;;;;3.85;1.30;;;3.50;74.90;;;;;;2076030;28;20028;-84
2021/04/23 03:24:48;;;;;;;3.83;1.42;;;3.50;75.60;;;;;;2069173;28;20034;-84
2021/04/23 03:25:50;;;;;;;4.00;1.30;;;3.50;75.10;;;;;;2071772;28;20045;-83
2021/04/23 03:26:51;;;;;;;3.47;1.30;;;3.50;75.10;;;;;;2067487;28;20142;-84
2021/04/23 03:27:52;;;;;;;3.42;1.40;;;3.50;75.20;;;;;;2071000;28;20084;-84
2021/04/23 03:28:53;;;;;;;3.83;1.25;;;3.50;75.20;;;;;;2080480;28;20033;-84
2021/04/23 03:29:54;;;;;;;5.05;1.90;;;3.50;75.30;;;;;;2086267;28;20037;-84
2021/04/23 03:30:55;;;;;;;3.25;1.38;;;3.50;75.30;;;;;;2067622;28;20101;-84
2021/04/23 03:31:56;;;;;;;3.15;1.25;;;3.40;75.30;;;;;;2071018;28;20023;-84
2021/04/23 03:32:57;;;;;;;3.90;1.50;;;3.50;75.30;;;;;;2071058;28;20561;-84
2021/04/23 03:33:58;;;;;;;3.13;1.35;;;3.40;75.30;;;;;;2064045;28;20034;-84
2021/04/23 03:34:59;;;;;;;4.05;1.50;;;3.40;75.40;;;;;;2055928;28;20029;-85
2021/04/23 03:36:04;;;;;;;5.10;1.60;;;3.40;75.50;;;;;;2076898;28;20112;-84
2021/04/23 03:37:05;;;;;;;4.53;1.70;;;3.40;75.60;;;;;;2076006;28;20086;-84
2021/04/23 03:38:09;;;;;;;4.40;1.70;;;3.40;75.60;;;;;;2077280;28;20036;-84
2021/04/23 03:39:11;;;;;;;3.22;1.45;;;3.30;75.60;;;;;;2065345;28;20034;-84
2021/04/23 03:40:16;;;;;;;4.28;1.60;;;3.40;75.80;;;;;;2056749;28;20034;-84
2021/04/23 03:41:26;;;;;;;3.75;1.50;;;3.30;75.80;;;;;;2071615;28;20096;-84
2021/04/23 03:42:27;;;;;;;4.65;1.63;;;3.30;75.80;;;;;;2087502;28;20032;-84
2021/04/23 03:43:28;;;;;;;3.95;1.58;;;3.30;75.70;;;;;;2081201;28;20014;-84
2021/04/23 03:44:28;;;;;;;3.25;1.45;;;3.30;75.80;;;;;;2073925;28;20120;-84
2021/04/23 03:45:29;;;;;;;6.55;1.98;;;3.30;75.80;;;;;;2057592;28;20113;-85
2021/04/23 03:46:30;;;;;;;3.00;1.48;;;3.30;75.80;;;;;;2064167;28;20076;-85
2021/04/23 03:47:31;;;;;;;4.88;1.80;;;3.30;75.80;;;;;;2074033;28;20463;-84
2021/04/23 03:48:33;;;;;;;5.32;1.92;;;3.30;75.80;;;;;;2065616;28;20046;-85
2021/04/23 03:49:35;;;;;;;5.28;2.10;;;3.30;75.80;;;;;;2073727;28;20105;-84
2021/04/23 03:50:37;;;;;;;5.90;1.90;;;3.30;75.90;;;;;;2085840;28;20139;-84
2021/04/23 03:51:38;;;;;;;5.25;1.80;;;3.30;75.90;;;;;;2094317;28;20044;-84
2021/04/23 03:52:40;;;;;;;3.92;1.80;;;3.30;75.90;;;;;;2083654;28;20033;-85
2021/04/23 03:53:42;;;;;;;3.55;1.95;;;3.30;76.00;;;;;;2079365;28;20037;-84
2021/04/23 03:54:43;;;;;;;4.07;2.10;;;3.30;76.00;;;;;;2071863;28;20109;-83
2021/04/23 03:55:52;;;;;;;6.00;1.88;;;3.30;76.00;;;;;;2075732;28;20036;-84
2021/04/23 03:56:52;;;;;;;4.38;1.90;;;3.30;76.10;;;;;;2083059;28;20030;-84
2021/04/23 03:57:54;;;;;;;5.07;1.88;;;3.30;76.00;;;;;;2089851;28;20133;-84
2021/04/23 03:58:54;;;;;;;3.92;1.98;;;3.30;76.10;;;;;;2090457;28;20020;-85
2021/04/23 03:59:55;;;;;;;4.25;2.00;;;3.20;76.10;;;;;;2082067;28;20488;-85
2021/04/23 04:00:59;;;;;;;5.38;2.22;;;3.30;76.20;;;;;;2066370;28;20073;-84
2021/04/23 04:02:00;;;;;;;6.72;2.40;;;3.30;76.30;;;;;;2088053;28;20037;-85
2021/04/23 04:03:01;;;;;;;4.07;1.90;;;3.30;76.20;;;;;;2084430;28;20116;-85
2021/04/23 04:04:02;;;;;;;6.22;1.92;;;3.30;76.20;;;;;;2069240;28;20542;-85
2021/04/23 04:05:04;;;;;;;5.47;2.10;;;3.30;76.30;;;;;;2068453;28;20045;-85
2021/04/23 04:06:06;;;;;;;5.72;2.50;;;3.30;76.30;;;;;;2071365;28;20030;-85
2021/04/23 04:07:06;;;;;;;5.00;2.35;;;3.30;76.30;;;;;;2071024;28;20060;-86
2021/04/23 04:08:08;;;;;;;5.00;2.47;;;3.30;76.40;;;;;;2069362;28;20088;-85
2021/04/23 04:09:09;;;;;;;6.75;2.42;;;3.30;76.40;;;;;;2088916;28;20156;-85
2021/04/23 04:10:12;;;;;;;5.32;2.15;;;3.30;76.40;;;;;;2076274;28;20049;-85
2021/04/23 04:11:12;;;;;;;4.90;2.10;;;3.30;76.40;;;;;;2080251;28;20578;-85
2021/04/23 04:12:13;;;;;;;3.17;1.92;;;3.30;76.40;;;;;;2078975;28;20128;-84
2021/04/23 04:13:15;;;;;;;6.82;2.33;;;3.30;76.40;;;;;;2073700;28;20088;-84
2021/04/23 04:14:16;;;;;;;4.88;2.20;;;3.30;76.50;;;;;;2073954;28;20034;-84
2021/04/23 04:15:17;;;;;;;5.28;2.15;;;3.30;76.50;;;;;;2081794;28;20033;-85
2021/04/23 04:16:18;;;;;;;6.53;2.38;;;3.30;76.40;;;;;;2088258;28;20127;-85
2021/04/23 04:17:19;;;;;;;4.68;2.08;;;3.40;76.50;;;;;;2086519;28;20029;-85
2021/04/23 04:18:21;;;;;;;6.13;2.58;;;3.40;76.40;;;;;;2087148;28;20030;-84
2021/04/23 04:19:21;;;;;;;5.70;2.60;;;3.40;76.50;;;;;;2079273;28;20017;-85
2021/04/23 04:20:24;;;;;;;5.93;2.60;;;3.40;76.50;;;;;;2065292;28;20038;-85
2021/04/23 04:21:25;;;;;;;5.35;2.40;;;3.40;76.50;;;;;;2073534;28;20022;-84
2021/04/23 04:22:26;;;;;;;6.82;2.42;;;3.40;76.40;;;;;;2082471;28;20134;-85
2021/04/23 04:23:27;;;;;;;4.50;2.30;;;3.50;76.50;;;;;;2089794;28;20031;-85
2021/04/23 04:24:27;;;;;;;5.93;2.28;;;3.50;76.50;;;;;;2081374;28;20101;-85
2021/04/23 04:25:34;;;;;;;4.68;2.30;;;3.50;76.50;;;;;;2078697;28;20080;-84
2021/04/23 04:26:36;;;;;;;5.72;2.10;;;3.50;76.60;;;;;;2087036;28;20030;-84
2021/04/23 04:27:38;;;;;;;5.65;2.40;;;3.50;77.20;;;;;;2094392;28;20044;-84
2021/04/23 04:28:39;;;;;;;5.50;2.30;;;3.50;77.20;;;;;;2085218;28;20056;-84
2021/04/23 04:29:39;;;;;;;5.72;2.50;;;3.60;76.50;;;;;;2061112;28;20166;-84
2021/04/23 04:30:40;;;;;;;6.03;2.30;;;3.60;76.50;;;;;;2071083;28;20029;-84
2021/04/23 04:31:41;;;;;;;4.25;2.00;;;3.60;76.40;;;;;;2081045;28;20029;-84
2021/04/23 04:32:41;;;;;;;3.95;2.33;;;3.60;76.40;;;;;;2070544;28;20121;-84
2021/04/23 04:33:43;;;;;;;4.80;2.50;;;3.60;76.40;;;;;;2071264;28;20026;-84
2021/04/23 04:34:44;;;;;;;3.88;2.30;;;3.60;76.40;;;;;;2075611;28;20426;-84
2021/04/23 04:35:46;;;;;;;5.47;2.30;;;3.70;76.50;;;;;;2072701;28;20026;-85
2021/04/23 04:36:47;;;;;;;5.88;2.50;;;3.70;76.50;;;;;;2089984;28;20041;-85
2021/04/23 04:37:47;;;;;;;4.72;2.40;;;3.70;77.00;;;;;;2081249;28;20021;-84
2021/04/23 04:38:48;;;;;;;4.63;2.15;;;3.70;76.40;;;;;;2073034;28;20036;-84
2021/04/23 04:39:49;;;;;;;4.82;2.17;;;3.70;76.50;;;;;;2076433;28;20021;-84
2021/04/23 04:40:50;;;;;;;5.38;2.30;;;3.80;76.60;;;;;;2081989;28;20125;-84
2021/04/23 04:41:51;;;;;;;5.88;2.40;;;3.80;76.60;;;;;;2074950;28;20040;-84
2021/04/23 04:42:55;;;;;;;5.18;2.53;;;3.80;76.60;;;;;;2068361;28;20037;-84
2021/04/23 04:43:56;;;;;;;5.20;2.70;;;3.80;76.60;;;;;;2080041;28;20122;-84
2021/04/23 04:45:00;;;;;;;7.40;2.20;;;3.80;76.50;;;;;;2072067;28;20208;-84
2021/04/23 04:46:02;;;;;;;5.85;2.58;;;3.80;76.60;;;;;;2078790;28;20033;-84
2021/04/23 04:47:03;;;;;;;5.95;2.25;;;3.90;76.60;;;;;;2085489;28;20029;-85
2021/04/23 04:48:06;;;;;;;5.85;2.30;;;3.90;76.60;;;;;;2083081;28;20137;-85
2021/04/23 04:49:06;;;;;;;6.28;2.50;;;3.90;76.60;;;;;;2087695;28;20030;-84
2021/04/23 04:50:14;;;;;;;5.47;2.63;;;4.00;76.60;;;;;;2073275;28;20532;-85
2021/04/23 04:51:15;;;;;;;4.43;2.38;;;4.00;77.20;;;;;;2081300;28;20064;-85
2021/04/23 04:52:16;;;;;;;4.65;2.15;;;4.00;76.50;;;;;;2091975;28;20051;-84
2021/04/23 04:53:18;;;;;;;6.10;2.63;;;4.00;77.10;;;;;;2088032;28;20617;-85
2021/04/23 04:54:18;;;;;;;4.80;2.63;;;4.10;76.60;;;;;;2072016;28;20638;-84
2021/04/23 04:55:21;;;;;;;7.05;2.90;;;4.10;76.50;;;;;;2072960;28;20030;-84
2021/04/23 04:56:22;;;;;;;5.70;2.70;;;4.10;76.40;;;;;;2081689;28;20029;-84
2021/04/23 04:57:23;;;;;;;5.25;2.55;;;4.20;76.40;;;;;;2071899;28;20484;-84
2021/04/23 04:58:27;;;;;;;6.30;3.00;;;4.20;76.40;;;;;;2072584;28;20018;-84
2021/04/23 04:59:28;;;;;;;4.68;2.65;;;4.20;76.40;;;;;;2074019;28;20402;-85
2021/04/23 05:00:29;;;;;;;6.05;2.50;;;4.20;76.40;;;;;;2070069;28;20052;-85
2021/04/23 05:01:30;;;;;;;6.55;2.67;;;4.20;76.40;;;;;;2072632;28;20022;-85
2021/04/23 05:02:31;;;;;;;7.10;3.08;;;4.30;76.40;;;;;;2087659;28;20577;-84
2021/04/23 05:03:32;;;;;;;5.32;2.80;;;4.30;76.40;;;;;;2086246;28;20487;-85
2021/04/23 05:04:33;;;;;;;5.03;2.45;;;4.30;76.40;;;;;;2077057;28;20494;-84
2021/04/23 05:05:34;;;;;;;5.35;2.28;;;4.30;76.30;;;;;;2089264;28;20033;-84
2021/04/23 05:06:35;;;;;;;4.35;2.33;;;4.40;76.40;;;;;;2079091;28;20021;-84
2021/04/23 05:07:36;;;;;;;4.93;2.70;;;4.40;76.30;;;;;;2062297;28;20513;-84
2021/04/23 05:08:36;;;;;;;5.38;2.53;;;4.40;76.40;;;;;;2072861;28;20599;-84
2021/04/23 05:09:37;;;;;;;4.85;2.33;;;4.40;76.30;;;;;;2082547;28;20022;-84
2021/04/23 05:10:38;;;;;;;7.28;3.08;;;4.50;76.30;;;;;;2086688;28;20028;-84
2021/04/23 05:11:39;;;;;;;6.40;2.70;;;4.50;76.30;;;;;;2078380;28;20037;-84
2021/04/23 05:12:40;;;;;;;5.45;2.65;;;4.50;76.20;;;;;;2070554;28;20113;-84
2021/04/23 05:13:40;;;;;;;6.10;2.60;;;4.50;76.20;;;;;;2055628;28;20043;-85
2021/04/23 05:14:41;;;;;;;5.43;2.60;;;4.50;76.20;;;;;;2066022;28;20081;-84
2021/04/23 05:15:42;;;;;;;6.03;2.53;;;4.60;76.30;;;;;;2064557;28;20034;-85
2021/04/23 05:16:42;;;;;;;5.78;2.88;;;4.50;76.30;;;;;;2081306;28;20041;-84
2021/04/23 05:17:44;;;;;;;6.68;2.83;;;4.50;76.40;;;;;;2072712;28;20024;-83
2021/04/23 05:18:45;;;;;;;5.55;2.47;;;4.60;76.40;;;;;;2069501;28;20028;-84
2021/04/23 05:19:46;;;;;;;7.07;2.70;;;4.60;76.40;;;;;;2083743;28;20021;-84
2021/04/23 05:20:47;;;;;;;4.72;2.47;;;4.60;76.40;;;;;;2079179;28;20562;-84
2021/04/23 05:21:47;;;;;;;6.00;2.65;;;4.70;77.00;;;;;;2087199;28;20421;-84
2021/04/23 05:22:49;;;;;;;5.10;2.80;;;4.70;76.30;;;;;;2065207;28;20034;-85
2021/04/23 05:23:51;;;;;;;4.75;2.60;;;4.70;76.20;;;;;;2073313;28;20026;-85
2021/04/23 05:24:51;;;;;;;5.10;2.55;;;4.70;76.20;;;;;;2081146;28;20369;-85
2021/04/23 05:25:52;;;;;;;5.45;2.58;;;4.80;76.10;;;;;;2081612;28;20033;-84
2021/04/23 05:26:53;;;;;;;5.38;2.53;;;4.80;76.00;;;;;;2089385;28;20029;-83
2021/04/23 05:27:55;;;;;;;6.07;2.88;;;4.90;76.10;;;;;;2077270;28;20030;-84
2021/04/23 05:28:55;;;;;;;5.30;2.72;;;4.90;76.00;;;;;;2070084;28;20027;-84